Time;durP1;ratioP1;P1;durP2;ratioP2;P2;SDS_P1;SDS_P2;PMS_P1;PMS_P2;Temp;Humidity;BMP_temperature;BMP_pressure;BME280_temperature;BME280_humidity;BME280_pressure;Samples;Min_cycle;Max_cycle;Signal;HPM_P1;HPM_P2
2022/06/25 00:00:58;;;;;;;18.97;17.07;;;18.50;99.90;;;;;;5115365;28;20048;-72
2022/06/25 00:03:24;;;;;;;20.37;18.53;;;18.40;99.90;;;;;;5115806;28;20050;-72
2022/06/25 00:05:50;;;;;;;19.53;17.63;;;18.40;99.90;;;;;;5115414;28;20407;-72
2022/06/25 00:08:15;;;;;;;19.87;18.03;;;18.30;99.90;;;;;;5115097;28;20071;-72
2022/06/25 00:10:42;;;;;;;21.83;19.70;;;18.30;99.90;;;;;;5115359;28;20559;-72
2022/06/25 00:13:07;;;;;;;19.70;17.80;;;18.30;99.90;;;;;;5114997;28;20035;-72
2022/06/25 00:15:33;;;;;;;21.70;19.70;;;18.30;99.90;;;;;;5115497;28;20089;-72
2022/06/25 00:17:59;;;;;;;22.83;20.57;;;18.30;99.90;;;;;;5114934;28;20044;-72
2022/06/25 00:20:25;;;;;;;22.40;20.10;;;18.30;99.90;;;;;;5115157;28;20043;-72
2022/06/25 00:22:50;;;;;;;20.90;18.90;;;18.20;99.90;;;;;;5115083;28;20053;-71
2022/06/25 00:25:16;;;;;;;21.30;19.40;;;18.30;99.90;;;;;;5114815;28;20135;-72
2022/06/25 00:27:42;;;;;;;22.33;20.23;;;18.30;99.90;;;;;;5115032;28;20047;-71
2022/06/25 00:30:08;;;;;;;25.00;22.67;;;18.30;99.90;;;;;;5115000;28;20045;-72
2022/06/25 00:32:34;;;;;;;24.43;22.13;;;;;;;;;;5096980;28;20112;-72
2022/06/25 00:35:01;;;;;;;25.37;23.07;;;18.10;99.90;;;;;;5114752;28;20050;-72
2022/06/25 00:37:27;;;;;;;24.53;22.07;;;18.20;99.90;;;;;;5114766;28;20055;-71
2022/06/25 00:39:52;;;;;;;24.00;21.70;;;18.10;99.90;;;;;;5114736;28;20409;-71
2022/06/25 00:42:18;;;;;;;25.07;22.77;;;18.10;99.90;;;;;;5096603;28;20043;-72
2022/06/25 00:44:44;;;;;;;24.13;21.93;;;18.00;99.90;;;;;;5114640;28;20048;-72
2022/06/25 00:47:12;;;;;;;26.60;24.00;;;18.00;99.90;;;;;;5114182;28;20052;-72
2022/06/25 00:49:39;;;;;;;23.70;21.40;;;18.00;99.90;;;;;;5114372;28;20623;-72
2022/06/25 00:52:11;;;;;;;24.33;22.07;;;18.00;99.90;;;;;;5114270;28;20051;-71
2022/06/25 00:54:40;;;;;;;25.37;23.07;;;18.00;99.90;;;;;;5114717;28;20040;-72
2022/06/25 00:57:07;;;;;;;24.13;21.93;;;18.00;99.90;;;;;;5096106;28;20047;-72
2022/06/25 00:59:37;;;;;;;24.10;22.00;;;18.00;99.90;;;;;;5114697;28;20039;-71
2022/06/25 01:02:02;;;;;;;23.73;21.70;;;18.00;99.90;;;;;;5096203;28;20047;-72
2022/06/25 01:04:30;;;;;;;23.33;20.97;;;17.90;99.90;;;;;;5114314;28;20428;-72
2022/06/25 01:06:56;;;;;;;23.50;21.40;;;17.90;99.90;;;;;;5114229;28;20044;-72
2022/06/25 01:09:21;;;;;;;23.60;21.50;;;17.90;99.90;;;;;;5113980;28;20044;-72
2022/06/25 01:11:47;;;;;;;25.53;23.13;;;17.90;99.90;;;;;;5114214;28;20042;-71
2022/06/25 01:14:14;;;;;;;23.47;21.37;;;17.80;99.90;;;;;;5113918;28;20054;-71
2022/06/25 01:16:39;;;;;;;25.27;22.87;;;17.80;99.90;;;;;;5095952;28;20043;-71
2022/06/25 01:19:10;;;;;;;24.17;21.93;;;17.80;99.90;;;;;;5113796;28;20035;-72
2022/06/25 01:21:37;;;;;;;24.03;21.83;;;17.80;99.90;;;;;;5114189;28;20043;-71
2022/06/25 01:24:05;;;;;;;22.83;20.43;;;17.80;99.90;;;;;;5113782;28;20039;-71
2022/06/25 01:26:39;;;;;;;23.77;21.37;;;17.80;99.90;;;;;;5113839;28;20052;-71
2022/06/25 01:29:06;;;;;;;25.47;23.07;;;17.80;99.90;;;;;;5113557;28;20039;-72
2022/06/25 01:31:32;;;;;;;25.63;23.23;;;17.80;99.90;;;;;;5114060;28;20179;-72
2022/06/25 01:33:59;;;;;;;23.80;21.67;;;17.70;99.90;;;;;;5113794;28;20066;-72
2022/06/25 01:36:25;;;;;;;24.77;22.47;;;17.80;99.90;;;;;;5095578;28;20059;-72
2022/06/25 01:38:51;;;;;;;25.57;23.37;;;17.70;99.90;;;;;;5113754;28;20092;-71
2022/06/25 01:41:18;;;;;;;24.70;22.33;;;17.70;99.90;;;;;;5113507;28;20130;-72
2022/06/25 01:43:43;;;;;;;25.63;23.33;;;17.70;99.90;;;;;;5113807;28;20113;-72
2022/06/25 01:46:09;;;;;;;24.77;22.37;;;17.70;99.90;;;;;;5113425;28;20093;-72
2022/06/25 01:48:35;;;;;;;23.83;21.43;;;17.70;99.90;;;;;;5113269;28;20107;-71
2022/06/25 01:51:01;;;;;;;24.50;22.27;;;17.70;99.90;;;;;;5113436;28;20089;-71
2022/06/25 01:53:27;;;;;;;25.33;23.00;;;17.70;99.90;;;;;;5095463;28;20044;-71
2022/06/25 01:55:53;;;;;;;23.17;20.87;;;17.70;99.90;;;;;;5113577;28;20058;-71
2022/06/25 01:58:20;;;;;;;20.57;18.77;;;17.80;99.90;;;;;;5113387;28;20056;-71
2022/06/25 02:00:46;;;;;;;20.03;18.13;;;17.80;99.90;;;;;;5113525;28;20044;-71
2022/06/25 02:03:12;;;;;;;21.70;19.60;;;17.80;99.90;;;;;;5113279;28;20044;-72
2022/06/25 02:08:22;;;;;;;22.10;20.13;;;17.70;99.90;;;;;;5113287;28;20461;-72
2022/06/25 02:10:48;;;;;;;20.77;18.83;;;17.70;99.90;;;;;;5113455;28;20678;-71
2022/06/25 02:13:15;;;;;;;21.50;19.60;;;17.70;99.90;;;;;;5095354;28;20040;-71
2022/06/25 02:15:41;;;;;;;21.53;19.53;;;17.70;99.90;;;;;;5113381;28;20046;-72
2022/06/25 02:18:07;;;;;;;20.77;18.77;;;17.70;99.90;;;;;;5113135;28;20044;-73
2022/06/25 02:20:33;;;;;;;21.87;19.67;;;17.70;99.90;;;;;;5095476;28;20375;-72
2022/06/25 02:22:59;;;;;;;19.77;17.97;;;17.60;99.90;;;;;;5095210;28;20047;-72
2022/06/25 02:25:25;;;;;;;20.33;18.37;;;17.60;99.90;;;;;;5094906;28;20050;-72
2022/06/25 02:27:51;;;;;;;20.03;18.20;;;17.70;99.90;;;;;;5113399;28;20126;-71
2022/06/25 02:30:16;;;;;;;19.83;18.03;;;17.60;99.90;;;;;;5113026;28;20122;-72
2022/06/25 02:32:42;;;;;;;19.50;17.60;;;17.70;99.90;;;;;;5113385;28;20571;-72
2022/06/25 02:35:08;;;;;;;19.20;17.40;;;17.70;99.90;;;;;;5113162;28;20047;-74
2022/06/25 02:37:34;;;;;;;19.10;17.30;;;17.60;99.90;;;;;;5078284;28;20509;-72
2022/06/25 02:40:00;;;;;;;20.37;18.27;;;17.70;99.90;;;;;;5113174;28;20043;-71
2022/06/25 02:42:32;;;;;;;19.00;17.20;;;17.60;99.90;;;;;;5112877;28;20078;-72
2022/06/25 02:44:58;;;;;;;16.50;14.80;;;17.60;99.90;;;;;;5095458;28;20108;-71
2022/06/25 02:47:24;;;;;;;18.97;17.07;;;17.60;99.90;;;;;;5113007;28;20523;-72
2022/06/25 02:49:49;;;;;;;19.70;17.70;;;17.60;99.90;;;;;;5094833;28;20502;-71
2022/06/25 02:52:15;;;;;;;19.17;17.37;;;17.60;99.90;;;;;;5112876;28;20043;-72
2022/06/25 02:54:41;;;;;;;18.03;16.23;;;17.60;99.90;;;;;;5113390;28;20122;-71
2022/06/25 02:59:50;;;;;;;15.93;14.43;;;17.60;99.90;;;;;;5095062;28;20043;-71
2022/06/25 03:02:17;;;;;;;16.90;15.20;;;17.50;99.90;;;;;;5116479;28;20503;-72
2022/06/25 03:04:43;;;;;;;18.70;16.83;;;17.50;99.90;;;;;;5117251;28;20069;-71
2022/06/25 03:07:08;;;;;;;18.50;16.70;;;17.50;99.90;;;;;;5116466;28;20559;-71
2022/06/25 03:09:34;;;;;;;16.27;14.77;;;17.50;99.90;;;;;;5116299;28;20433;-71
2022/06/25 03:12:00;;;;;;;17.10;15.63;;;17.50;99.90;;;;;;5116490;28;20134;-71
2022/06/25 03:14:25;;;;;;;15.07;13.57;;;17.50;99.90;;;;;;5116190;28;20126;-72
2022/06/25 03:16:51;;;;;;;15.67;14.07;;;17.50;99.90;;;;;;5081543;28;20040;-72
2022/06/25 03:19:17;;;;;;;14.87;13.33;;;17.50;99.90;;;;;;5098080;28;20050;-72
2022/06/25 03:21:44;;;;;;;16.80;15.10;;;17.50;99.90;;;;;;5098021;28;20051;-71
2022/06/25 03:24:10;;;;;;;17.27;13.67;;;17.50;99.90;;;;;;5116247;28;20052;-72
2022/06/25 03:26:35;;;;;;;13.83;12.43;;;17.50;99.90;;;;;;5116072;28;20062;-72
2022/06/25 03:29:03;;;;;;;14.47;13.00;;;17.50;99.90;;;;;;5116086;28;20096;-72
2022/06/25 03:31:29;;;;;;;16.40;14.47;;;17.50;99.90;;;;;;5115933;28;20051;-72
2022/06/25 03:33:54;;;;;;;15.23;11.60;;;17.50;99.90;;;;;;5116071;28;20092;-72
2022/06/25 03:36:20;;;;;;;14.57;11.73;;;17.50;99.90;;;;;;5115767;28;20048;-72
2022/06/25 03:38:46;;;;;;;12.80;11.53;;;17.50;99.90;;;;;;5116002;28;20050;-71
2022/06/25 03:43:55;;;;;;;12.70;10.97;;;17.50;99.90;;;;;;5116088;28;20051;-72
2022/06/25 03:46:21;;;;;;;13.50;12.03;;;17.50;99.90;;;;;;5115418;28;20043;-70
2022/06/25 03:48:47;;;;;;;13.03;11.73;;;17.50;99.90;;;;;;5115763;28;20040;-72
2022/06/25 03:51:13;;;;;;;13.03;11.40;;;17.50;99.90;;;;;;5115899;28;20043;-71
2022/06/25 03:53:39;;;;;;;12.97;11.67;;;17.50;99.90;;;;;;5115492;28;20468;-71
2022/06/25 03:56:05;;;;;;;12.03;10.73;;;17.50;99.90;;;;;;5115705;28;20079;-71
2022/06/25 03:58:30;;;;;;;11.93;10.80;;;17.50;99.90;;;;;;5097250;28;20043;-72
2022/06/25 04:00:57;;;;;;;15.60;11.90;;;17.50;99.90;;;;;;5097496;28;20475;-71
2022/06/25 04:03:22;;;;;;;13.13;11.73;;;17.60;99.90;;;;;;5115275;28;20131;-72
2022/06/25 04:05:48;;;;;;;16.47;12.13;;;17.60;99.90;;;;;;5115493;28;20083;-71
2022/06/25 04:08:15;;;;;;;13.53;11.17;;;17.60;99.90;;;;;;5097385;28;20055;-71
2022/06/25 04:10:42;;;;;;;12.77;11.57;;;17.60;99.90;;;;;;5115005;28;20048;-71
2022/06/25 04:13:08;;;;;;;11.77;10.60;;;17.60;99.90;;;;;;5097201;28;20138;-72
2022/06/25 04:15:35;;;;;;;11.70;10.53;;;17.60;99.90;;;;;;5115093;28;20130;-72
2022/06/25 04:18:02;;;;;;;10.83;9.73;;;17.60;99.90;;;;;;5097334;28;20054;-72
2022/06/25 04:20:27;;;;;;;11.83;10.50;;;17.60;99.90;;;;;;5115030;28;20372;-71
2022/06/25 04:22:53;;;;;;;11.27;9.27;;;17.60;99.90;;;;;;5115222;28;20055;-72
2022/06/25 04:25:19;;;;;;;10.33;9.20;;;17.70;99.90;;;;;;5097066;28;20083;-74
2022/06/25 04:30:29;;;;;;;10.70;9.60;;;17.70;99.90;;;;;;5114736;28;20131;-72
2022/06/25 04:32:55;;;;;;;12.00;9.83;;;17.80;99.90;;;;;;5114932;28;20313;-71
2022/06/25 04:35:20;;;;;;;12.57;8.90;;;17.90;99.90;;;;;;5080006;28;20120;-73
2022/06/25 04:37:46;;;;;;;12.37;9.70;;;17.90;99.90;;;;;;5115054;28;20048;-71
2022/06/25 04:40:12;;;;;;;8.83;7.90;;;18.00;99.90;;;;;;5114740;28;20140;-72
2022/06/25 04:42:38;;;;;;;11.57;8.83;;;18.00;99.90;;;;;;5114500;28;20039;-72
2022/06/25 04:45:04;;;;;;;10.03;8.53;;;18.10;99.90;;;;;;5114717;28;20126;-72
2022/06/25 04:47:30;;;;;;;11.03;8.10;;;18.20;99.90;;;;;;5114283;28;20055;-72
2022/06/25 04:49:56;;;;;;;10.57;8.00;;;;;;;;;;5096333;28;20047;-71
2022/06/25 04:52:21;;;;;;;9.30;7.43;;;18.40;99.90;;;;;;5114535;28;20044;-72
2022/06/25 04:54:47;;;;;;;9.87;8.23;;;18.50;99.90;;;;;;5114559;28;20092;-72
2022/06/25 04:57:13;;;;;;;9.80;7.23;;;18.60;99.90;;;;;;5114682;28;20051;-72
2022/06/25 04:59:39;;;;;;;10.33;7.43;;;;;;;;;;5114199;28;20512;-71
2022/06/25 05:02:05;;;;;;;9.27;8.23;;;18.90;99.90;;;;;;5114020;28;20557;-71
2022/06/25 05:04:31;;;;;;;8.63;6.87;;;18.90;99.90;;;;;;5114129;28;20054;-72
2022/06/25 05:06:58;;;;;;;11.60;7.60;;;;;;;;;;5114297;28;20159;-72
2022/06/25 05:09:24;;;;;;;8.87;7.00;;;;;;;;;;5113942;28;20048;-73
2022/06/25 05:11:51;;;;;;;8.40;6.33;;;19.40;99.90;;;;;;5114382;28;20100;-72
2022/06/25 05:14:16;;;;;;;12.03;6.90;;;19.40;99.90;;;;;;5114150;28;20130;-72
2022/06/25 05:16:44;;;;;;;8.27;6.90;;;19.40;99.90;;;;;;5114021;28;20126;-72
2022/06/25 05:19:10;;;;;;;9.93;7.13;;;19.50;99.90;;;;;;5114060;28;20043;-72
2022/06/25 05:21:36;;;;;;;8.60;7.63;;;19.50;99.90;;;;;;5113846;28;20498;-72
2022/06/25 05:24:02;;;;;;;9.20;6.90;;;19.70;99.90;;;;;;5113516;28;20043;-72
2022/06/25 05:26:28;;;;;;;10.83;7.47;;;19.70;99.90;;;;;;5113922;28;20507;-72
2022/06/25 05:28:54;;;;;;;9.10;6.73;;;19.80;99.90;;;;;;5113831;28;20126;-72
2022/06/25 05:31:19;;;;;;;8.00;6.80;;;19.90;99.90;;;;;;5113830;28;20134;-72
2022/06/25 05:33:45;;;;;;;11.33;7.53;;;20.00;99.90;;;;;;5113642;28;20089;-72
2022/06/25 05:36:11;;;;;;;8.60;6.73;;;20.10;99.90;;;;;;5096004;28;20039;-72
2022/06/25 05:38:37;;;;;;;7.67;6.73;;;20.20;99.90;;;;;;5095293;28;20043;-72
2022/06/25 05:41:08;;;;;;;9.17;6.23;;;20.30;99.90;;;;;;5113413;28;20395;-72
2022/06/25 05:43:35;;;;;;;9.80;6.70;;;20.50;99.90;;;;;;5113639;28;20047;-72
2022/06/25 05:46:01;;;;;;;7.00;6.23;;;20.60;99.90;;;;;;5113582;28;20043;-72
2022/06/25 05:48:27;;;;;;;9.90;6.13;;;20.80;99.90;;;;;;5113676;28;20070;-72
2022/06/25 05:50:53;;;;;;;9.13;6.33;;;21.00;99.90;;;;;;5113822;28;20048;-72
2022/06/25 05:53:18;;;;;;;9.50;5.87;;;21.60;99.90;;;;;;5113637;28;20146;-72
2022/06/25 05:55:45;;;;;;;8.17;5.60;;;;;;;;;;5113391;28;20039;-72
2022/06/25 05:58:11;;;;;;;6.20;4.97;;;;;;;;;;5113482;28;20136;-72
2022/06/25 06:00:37;;;;;;;7.57;5.23;;;;;;;;;;5095399;28;20090;-72
2022/06/25 06:03:03;;;;;;;8.27;4.83;;;;;;;;;;5113495;28;20135;-72
2022/06/25 06:05:29;;;;;;;7.10;4.50;;;;;;;;;;5113316;28;20043;-72
2022/06/25 06:07:55;;;;;;;7.70;5.27;;;27.60;99.90;;;;;;5113387;28;20147;-72
2022/06/25 06:10:20;;;;;;;6.80;4.70;;;28.00;99.90;;;;;;5113479;28;20461;-72
2022/06/25 06:12:46;;;;;;;8.33;5.03;;;28.20;99.90;;;;;;5113155;28;20043;-72
2022/06/25 06:15:12;;;;;;;6.27;4.73;;;28.40;97.20;;;;;;5095701;28;20047;-72
2022/06/25 06:17:38;;;;;;;7.43;4.90;;;28.40;94.50;;;;;;5095170;28;20437;-72
2022/06/25 06:20:05;;;;;;;8.10;4.43;;;28.30;93.40;;;;;;5113380;28;20048;-72
2022/06/25 06:22:32;;;;;;;7.97;4.50;;;28.20;92.80;;;;;;5094987;28;20055;-74
2022/06/25 06:24:58;;;;;;;9.80;4.65;;;28.30;98.60;;;;;;5113280;28;20043;-72
2022/06/25 06:27:24;;;;;;;8.68;5.15;;;;;;;;;;5113300;28;20051;-72
2022/06/25 06:29:49;;;;;;;8.73;4.88;;;29.60;95.30;;;;;;5112960;28;20082;-73
2022/06/25 06:32:15;;;;;;;5.90;4.00;;;29.90;67.60;;;;;;5113473;28;20087;-72
2022/06/25 06:34:42;;;;;;;8.57;4.38;;;30.10;72.40;;;;;;5114378;28;20044;-72
2022/06/25 06:37:07;;;;;;;15.05;4.82;;;30.20;69.80;;;;;;5117149;28;20144;-72
2022/06/25 06:39:33;;;;;;;8.02;4.30;;;30.50;67.50;;;;;;5116920;28;20075;-74
2022/06/25 06:41:59;;;;;;;6.18;3.75;;;30.60;65.40;;;;;;5117348;28;20043;-72
2022/06/25 06:44:25;;;;;;;8.30;4.22;;;30.90;62.90;;;;;;5117076;28;20124;-72
2022/06/25 06:46:51;;;;;;;12.38;4.22;;;31.10;61.60;;;;;;5116714;28;20135;-72
2022/06/25 06:49:17;;;;;;;5.80;3.30;;;;;;;;;;5117119;28;20077;-72
2022/06/25 06:51:42;;;;;;;8.98;4.22;;;31.40;59.10;;;;;;5116707;28;20053;-73
2022/06/25 06:54:08;;;;;;;7.47;3.90;;;31.50;57.70;;;;;;5116810;28;20047;-72
2022/06/25 06:56:34;;;;;;;5.40;3.50;;;31.70;56.80;;;;;;5117107;28;20043;-72
2022/06/25 06:59:00;;;;;;;6.18;3.25;;;;;;;;;;5098796;28;20059;-72
2022/06/25 07:01:26;;;;;;;6.65;3.80;;;;;;;;;;5116739;28;20502;-72
2022/06/25 07:03:53;;;;;;;8.20;3.53;;;;;;;;;;5116483;28;20490;-72
2022/06/25 07:06:19;;;;;;;5.43;2.97;;;;;;;;;;5117002;28;20059;-72
2022/06/25 07:08:45;;;;;;;7.00;3.45;;;;;;;;;;5116331;28;20039;-72
2022/06/25 07:11:29;;;;;;;7.10;3.63;;;;;;;;;;5098609;28;20493;-72
2022/06/25 07:13:57;;;;;;;6.68;3.25;;;33.40;75.80;;;;;;5116724;28;20046;-73
2022/06/25 07:16:23;;;;;;;7.82;3.60;;;33.50;54.90;;;;;;5116490;28;20043;-72
2022/06/25 07:18:50;;;;;;;7.85;3.33;;;;;;;;;;5116245;28;20032;-73
2022/06/25 07:21:17;;;;;;;6.25;3.67;;;;;;;;;;5116423;28;20077;-72
2022/06/25 07:23:43;;;;;;;6.50;3.22;;;;;;;;;;5116220;28;20130;-73
2022/06/25 07:26:09;;;;;;;5.70;3.15;;;33.60;83.70;;;;;;5116252;28;20047;-72
2022/06/25 07:28:34;;;;;;;7.70;2.72;;;33.80;56.70;;;;;;5115794;28;20051;-72
2022/06/25 07:31:00;;;;;;;7.93;2.80;;;33.80;47.30;;;;;;5098018;28;20047;-72
2022/06/25 07:33:27;;;;;;;6.65;3.47;;;34.00;46.60;;;;;;5098207;28;20046;-72
2022/06/25 07:35:52;;;;;;;6.70;2.70;;;34.20;46.00;;;;;;5115622;28;20403;-72
2022/06/25 07:38:18;;;;;;;7.10;3.28;;;34.40;46.10;;;;;;5116052;28;20048;-72
2022/06/25 07:40:44;;;;;;;6.80;2.90;;;34.50;44.70;;;;;;5097681;28;20046;-72
2022/06/25 07:43:09;;;;;;;7.13;2.83;;;34.10;44.90;;;;;;5116038;28;20130;-72
2022/06/25 07:45:35;;;;;;;8.02;3.38;;;33.50;45.50;;;;;;5115671;28;20104;-72
2022/06/25 07:48:01;;;;;;;7.28;3.22;;;33.30;46.00;;;;;;5115385;28;20055;-72
2022/06/25 07:53:12;;;;;;;9.60;3.45;;;;;;;;;;5115503;28;20083;-72
2022/06/25 07:55:38;;;;;;;6.63;3.20;;;;;;;;;;5097524;28;20097;-72
2022/06/25 07:58:04;;;;;;;7.28;4.03;;;;;;;;;;5115467;28;20044;-72
2022/06/25 08:00:30;;;;;;;8.07;3.35;;;;;;;;;;5115618;28;20040;-72
2022/06/25 08:02:56;;;;;;;9.98;3.78;;;30.50;87.90;;;;;;5115379;28;20048;-72
2022/06/25 08:05:22;;;;;;;6.15;3.67;;;30.10;50.70;;;;;;5115558;28;20071;-72
2022/06/25 08:07:49;;;;;;;5.97;3.15;;;30.20;51.80;;;;;;5115318;28;20348;-72
2022/06/25 08:10:14;;;;;;;8.32;3.65;;;30.40;52.50;;;;;;5115917;28;20416;-72
2022/06/25 08:12:40;;;;;;;10.02;3.67;;;31.00;52.30;;;;;;5115518;28;20119;-72
2022/06/25 08:15:06;;;;;;;9.82;3.47;;;31.60;51.40;;;;;;5115058;28;20046;-72
2022/06/25 08:17:34;;;;;;;5.78;3.53;;;32.40;78.70;;;;;;5115307;28;20048;-72
2022/06/25 08:20:00;;;;;;;6.30;3.55;;;33.00;49.20;;;;;;5097068;28;20113;-72
2022/06/25 08:22:26;;;;;;;7.25;3.30;;;33.40;48.00;;;;;;5115178;28;20061;-72
2022/06/25 08:24:52;;;;;;;7.00;3.70;;;33.60;46.10;;;;;;5115044;28;20072;-72
2022/06/25 08:27:18;;;;;;;7.28;3.75;;;;;;;;;;5115105;28;20047;-72
2022/06/25 08:29:44;;;;;;;7.13;3.72;;;33.50;51.80;;;;;;5114921;28;20040;-72
2022/06/25 08:32:10;;;;;;;6.93;3.90;;;;;;;;;;5096992;28;20476;-72
2022/06/25 08:34:36;;;;;;;7.03;3.72;;;;;;;;;;5114930;28;20051;-72
2022/06/25 08:37:02;;;;;;;8.90;3.78;;;;;;;;;;5114611;28;20051;-72
2022/06/25 08:39:28;;;;;;;7.47;3.67;;;;;;;;;;5114780;28;20069;-72
2022/06/25 08:41:54;;;;;;;8.20;2.85;;;;;;;;;;5114514;28;20055;-72
2022/06/25 08:44:20;;;;;;;7.35;2.92;;;;;;;;;;5114707;28;20055;-72
2022/06/25 08:46:47;;;;;;;8.07;3.05;;;;;;;;;;5114267;28;20062;-74
2022/06/25 08:49:13;;;;;;;7.18;3.00;;;;;;;;;;5114645;28;20051;-72
2022/06/25 08:51:40;;;;;;;5.38;3.03;;;;;;;;;;5114605;28;20058;-72
2022/06/25 08:54:08;;;;;;;5.28;2.90;;;;;;;;;;5114441;28;20050;-72
2022/06/25 08:56:36;;;;;;;7.53;3.20;;;;;;;;;;5096336;28;20124;-72
2022/06/25 08:59:01;;;;;;;7.28;2.97;;;31.80;44.80;;;;;;5113253;28;20067;-72
2022/06/25 09:01:27;;;;;;;5.82;2.53;;;31.40;46.70;;;;;;5114507;28;20463;-72
2022/06/25 09:03:53;;;;;;;4.40;2.80;;;31.20;47.30;;;;;;5114162;28;20039;-72
2022/06/25 09:06:21;;;;;;;5.80;2.75;;;;;;;;;;5114357;28;20039;-72
2022/06/25 09:09:06;;;;;;;6.00;2.90;;;;;;;;;;5114213;28;20047;-72
2022/06/25 09:11:32;;;;;;;5.00;2.47;;;;;;;;;;5114492;28;20069;-72
2022/06/25 09:14:28;;;;;;;9.65;2.53;;;30.00;76.10;;;;;;5113925;28;20105;-72
2022/06/25 09:16:57;;;;;;;7.30;2.85;;;30.10;66.80;;;;;;5113903;28;20043;-72
2022/06/25 09:19:34;;;;;;;10.05;3.55;;;29.90;80.90;;;;;;5114334;28;20048;-72
2022/06/25 09:22:04;;;;;;;7.88;2.97;;;29.50;51.50;;;;;;5113824;28;20502;-72
2022/06/25 09:24:57;;;;;;;5.20;2.50;;;29.20;51.80;;;;;;5113934;28;20048;-71
2022/06/25 09:27:36;;;;;;;6.75;2.70;;;29.10;60.20;;;;;;5113868;28;20079;-71
2022/06/25 09:30:20;;;;;;;7.85;2.47;;;29.00;52.80;;;;;;5113644;28;20048;-71
2022/06/25 09:32:59;;;;;;;11.23;2.88;;;28.90;52.90;;;;;;5113832;28;20044;-71
2022/06/25 09:35:37;;;;;;;5.18;2.53;;;28.80;53.70;;;;;;5113835;28;20051;-71
2022/06/25 09:38:11;;;;;;;6.65;2.20;;;;;;;;;;5113604;28;20039;-72
2022/06/25 09:40:38;;;;;;;7.50;2.70;;;28.70;73.70;;;;;;5113993;28;20391;-72
2022/06/25 09:43:15;;;;;;;6.20;2.30;;;;;;;;;;5113509;28;20039;-72
2022/06/25 09:45:43;;;;;;;6.25;2.50;;;;;;;;;;5113709;28;20101;-71
2022/06/25 09:48:10;;;;;;;10.23;2.75;;;;;;;;;;5113811;28;20063;-72
2022/06/25 09:50:35;;;;;;;9.43;2.55;;;28.20;54.40;;;;;;5113201;28;20495;-71
2022/06/25 09:53:01;;;;;;;5.35;2.33;;;28.10;60.80;;;;;;5095296;28;20044;-72
2022/06/25 09:55:30;;;;;;;6.90;2.55;;;27.90;55.30;;;;;;5113597;28;20051;-72
2022/06/25 09:57:59;;;;;;;7.22;2.85;;;27.70;55.70;;;;;;5113254;28;20039;-72
2022/06/25 10:00:25;;;;;;;7.63;2.83;;;27.70;56.80;;;;;;5113521;28;20040;-71
2022/06/25 10:02:51;;;;;;;4.97;2.05;;;27.60;58.10;;;;;;5095601;28;20051;-72
2022/06/25 10:05:21;;;;;;;5.82;2.20;;;27.60;58.20;;;;;;5113294;28;20088;-72
2022/06/25 10:07:59;;;;;;;5.18;1.83;;;27.70;59.20;;;;;;5113461;28;20036;-71
2022/06/25 10:10:36;;;;;;;6.65;2.72;;;27.70;58.30;;;;;;5116387;28;20097;-71
2022/06/25 10:13:03;;;;;;;6.13;2.20;;;27.60;58.80;;;;;;5117462;28;20475;-72
2022/06/25 10:15:29;;;;;;;4.90;1.92;;;27.50;58.70;;;;;;5099518;28;20100;-72
2022/06/25 10:17:55;;;;;;;8.77;2.28;;;27.40;59.90;;;;;;5117666;28;20040;-71
2022/06/25 10:20:22;;;;;;;5.35;2.20;;;;;;;;;;5117649;28;20134;-71
2022/06/25 10:22:50;;;;;;;3.70;2.05;;;27.30;60.80;;;;;;5117577;28;20399;-71
2022/06/25 10:25:19;;;;;;;6.55;2.00;;;27.30;62.60;;;;;;5117279;28;20043;-71
2022/06/25 10:27:49;;;;;;;4.38;1.80;;;27.30;62.50;;;;;;5117332;28;20049;-71
2022/06/25 10:30:35;;;;;;;8.77;2.38;;;;;;;;;;5117077;28;20048;-71
2022/06/25 10:33:01;;;;;;;6.03;1.77;;;;;;;;;;5117120;28;20061;-71
2022/06/25 10:35:31;;;;;;;4.80;2.10;;;;;;;;;;5117444;28;20396;-71
2022/06/25 10:38:02;;;;;;;8.52;2.10;;;;;;;;;;5099227;28;20050;-72
2022/06/25 10:40:29;;;;;;;4.90;2.10;;;;;;;;;;5117155;28;20043;-72
2022/06/25 10:43:01;;;;;;;3.90;1.55;;;;;;;;;;5117211;28;20089;-72
2022/06/25 10:45:34;;;;;;;6.35;2.00;;;;;;;;;;5116812;28;20480;-71
2022/06/25 10:48:01;;;;;;;6.78;1.80;;;;;;;;;;5098432;28;20056;-72
2022/06/25 10:50:33;;;;;;;5.45;2.05;;;26.90;63.20;;;;;;5116946;28;20130;-71
2022/06/25 10:53:05;;;;;;;6.88;2.05;;;26.80;66.60;;;;;;5099045;28;20047;-71
2022/06/25 10:55:34;;;;;;;3.87;1.57;;;;;;;;;;5116878;28;20044;-71
2022/06/25 10:58:17;;;;;;;5.78;1.75;;;26.60;66.40;;;;;;5116749;28;20062;-74
2022/06/25 11:00:51;;;;;;;5.27;2.13;;;26.70;67.50;;;;;;5116959;28;20047;-71
2022/06/25 11:03:38;;;;;;;4.53;1.88;;;26.60;67.10;;;;;;5116574;28;20048;-71
2022/06/25 11:06:29;;;;;;;5.03;1.80;;;26.50;68.30;;;;;;5098362;28;20043;-72
2022/06/25 11:08:55;;;;;;;4.53;1.60;;;26.50;67.50;;;;;;5116597;28;20039;-71
2022/06/25 11:11:28;;;;;;;5.17;1.67;;;26.40;68.40;;;;;;5116046;28;20487;-71
2022/06/25 11:13:55;;;;;;;4.53;1.83;;;26.40;71.90;;;;;;5116489;28;20503;-71
2022/06/25 11:16:22;;;;;;;5.00;2.50;;;26.30;70.90;;;;;;5116247;28;20285;-72
2022/06/25 11:18:55;;;;;;;6.17;2.80;;;26.30;73.80;;;;;;5116473;28;20039;-71
2022/06/25 11:21:35;;;;;;;6.43;2.70;;;26.20;77.20;;;;;;5115067;28;20097;-72
2022/06/25 11:24:26;;;;;;;8.03;3.00;;;26.20;79.90;;;;;;5098460;28;20444;-71
2022/06/25 11:29:41;;;;;;;6.53;2.93;;;26.40;81.10;;;;;;5116222;28;20052;-71
2022/06/25 11:32:08;;;;;;;7.33;3.20;;;26.50;82.00;;;;;;5098084;28;20431;-72
2022/06/25 11:34:35;;;;;;;5.20;2.53;;;26.50;84.00;;;;;;5116110;28;20083;-71
2022/06/25 11:37:10;;;;;;;7.33;2.70;;;26.60;85.10;;;;;;5116117;28;20051;-71
2022/06/25 11:39:37;;;;;;;4.70;2.50;;;26.70;81.90;;;;;;5115972;28;20108;-71
2022/06/25 11:42:07;;;;;;;7.70;2.77;;;26.70;79.00;;;;;;5115998;28;20171;-71
2022/06/25 11:44:45;;;;;;;7.67;2.90;;;26.60;81.00;;;;;;5116242;28;20048;-71
2022/06/25 11:47:19;;;;;;;8.03;3.00;;;26.60;81.90;;;;;;5115575;28;20047;-71
2022/06/25 11:49:46;;;;;;;6.78;3.03;;;26.50;83.10;;;;;;5115987;28;20130;-71
2022/06/25 11:52:13;;;;;;;6.80;3.43;;;26.30;84.00;;;;;;5080782;28;20051;-71
2022/06/25 11:54:40;;;;;;;4.67;2.70;;;;;;;;;;5115405;28;20496;-71
2022/06/25 11:57:07;;;;;;;6.17;3.07;;;;;;;;;;5115628;28;20392;-74
2022/06/25 11:59:37;;;;;;;4.93;2.77;;;25.60;99.90;;;;;;5115686;28;20124;-71
2022/06/25 12:02:07;;;;;;;5.13;2.80;;;25.70;90.20;;;;;;5115658;28;20047;-71
2022/06/25 12:04:51;;;;;;;5.07;3.07;;;25.60;91.80;;;;;;5115930;28;20035;-71
2022/06/25 12:07:31;;;;;;;7.30;3.33;;;25.40;93.50;;;;;;5115350;28;20051;-71
2022/06/25 12:09:59;;;;;;;5.13;3.43;;;25.30;93.10;;;;;;5115596;28;20039;-71
2022/06/25 12:12:26;;;;;;;7.03;3.43;;;25.10;95.30;;;;;;5097171;28;20043;-71
2022/06/25 12:14:53;;;;;;;8.33;3.57;;;24.80;98.40;;;;;;5097307;28;20108;-71
2022/06/25 12:17:19;;;;;;;8.23;3.63;;;24.80;99.60;;;;;;5115108;28;20372;-71
2022/06/25 12:19:53;;;;;;;7.87;3.63;;;24.60;99.90;;;;;;5097008;28;20104;-71
2022/06/25 12:22:28;;;;;;;6.80;4.00;;;24.40;99.90;;;;;;5115150;28;20051;-71
2022/06/25 12:25:00;;;;;;;5.97;3.60;;;24.30;99.90;;;;;;5115163;28;20192;-71
2022/06/25 12:27:27;;;;;;;6.87;4.13;;;24.10;99.90;;;;;;5081042;28;20048;-71
2022/06/25 12:29:56;;;;;;;10.13;4.73;;;24.00;99.90;;;;;;5114936;28;20126;-71
2022/06/25 12:32:37;;;;;;;8.60;4.37;;;24.00;99.90;;;;;;5114451;28;20054;-71
2022/06/25 12:35:11;;;;;;;6.47;4.43;;;24.10;99.90;;;;;;5114918;28;20395;-71
2022/06/25 12:37:37;;;;;;;8.57;4.60;;;24.20;99.90;;;;;;5114954;28;20100;-71
2022/06/25 12:40:03;;;;;;;9.23;4.33;;;24.40;99.90;;;;;;5096658;28;20039;-71
2022/06/25 12:42:33;;;;;;;6.27;4.10;;;24.50;99.90;;;;;;5114635;28;20433;-71
2022/06/25 12:44:59;;;;;;;6.60;4.77;;;24.60;99.90;;;;;;5114750;28;20045;-71
2022/06/25 12:47:38;;;;;;;9.53;4.70;;;24.70;99.90;;;;;;5114235;28;20381;-71
2022/06/25 12:50:06;;;;;;;8.43;4.93;;;24.80;99.90;;;;;;5114662;28;20130;-71
2022/06/25 12:52:37;;;;;;;8.00;4.60;;;24.80;99.90;;;;;;5114384;28;20047;-71
2022/06/25 12:55:04;;;;;;;8.27;4.03;;;24.80;99.90;;;;;;5114654;28;20096;-71
2022/06/25 12:57:32;;;;;;;7.17;4.90;;;24.60;99.90;;;;;;5114261;28;20055;-71
2022/06/25 13:00:01;;;;;;;8.23;4.73;;;24.60;99.90;;;;;;5114520;28;20131;-71
2022/06/25 13:02:27;;;;;;;8.17;5.20;;;24.60;99.90;;;;;;5114121;28;20475;-71
2022/06/25 13:04:52;;;;;;;7.33;4.77;;;24.30;99.90;;;;;;5114325;28;20043;-71
2022/06/25 13:07:19;;;;;;;5.90;4.43;;;24.20;99.90;;;;;;5114072;28;20490;-71
2022/06/25 13:09:48;;;;;;;8.87;4.47;;;24.20;99.90;;;;;;5114203;28;20126;-71
2022/06/25 13:12:14;;;;;;;7.43;5.30;;;24.40;99.90;;;;;;5114217;28;20048;-73
2022/06/25 13:14:40;;;;;;;7.97;5.00;;;24.60;99.90;;;;;;5114423;28;20052;-71
2022/06/25 13:17:07;;;;;;;8.57;5.20;;;24.70;99.90;;;;;;5114111;28;20055;-71